sensor_id;sensor_type;location;lat;lon;timestamp;pressure;altitude;pressure_sealevel;temperature;humidity
22964;BME280;11648;49.306;6.934;2024-01-16T00:01:00;97888.69;;;6.36;53.93
22964;BME280;11648;49.306;6.934;2024-01-16T00:03:27;97885.25;;;6.34;53.91
22964;BME280;11648;49.306;6.934;2024-01-16T00:05:55;97886.13;;;6.27;54.78
22964;BME280;11648;49.306;6.934;2024-01-16T00:08:21;97887.81;;;6.40;53.84
22964;BME280;11648;49.306;6.934;2024-01-16T00:10:48;97893.09;;;6.35;54.54
22964;BME280;11648;49.306;6.934;2024-01-16T00:13:15;97890.53;;;6.11;55.16
22964;BME280;11648;49.306;6.934;2024-01-16T00:15:42;97897.50;;;6.21;54.54
22964;BME280;11648;49.306;6.934;2024-01-16T00:18:09;97893.09;;;6.31;54.36
22964;BME280;11648;49.306;6.934;2024-01-16T00:20:36;97895.72;;;6.31;54.29
22964;BME280;11648;49.306;6.934;2024-01-16T00:23:03;97899.19;;;6.30;54.30
22964;BME280;11648;49.306;6.934;2024-01-16T00:25:30;97896.59;;;6.24;55.15
22964;BME280;11648;49.306;6.934;2024-01-16T00:27:57;97901.78;;;6.36;54.40
22964;BME280;11648;49.306;6.934;2024-01-16T00:30:24;97899.16;;;6.37;54.61
22964;BME280;11648;49.306;6.934;2024-01-16T00:32:51;97902.63;;;6.39;54.16
22964;BME280;11648;49.306;6.934;2024-01-16T00:35:18;97914.91;;;6.19;54.98
22964;BME280;11648;49.306;6.934;2024-01-16T00:37:45;97910.47;;;6.41;54.18
22964;BME280;11648;49.306;6.934;2024-01-16T00:40:12;97912.25;;;6.34;54.23
22964;BME280;11648;49.306;6.934;2024-01-16T00:42:40;97907.00;;;6.42;54.35
22964;BME280;11648;49.306;6.934;2024-01-16T00:45:07;97907.91;;;6.35;54.41
22964;BME280;11648;49.306;6.934;2024-01-16T00:47:33;97910.44;;;6.47;53.93
22964;BME280;11648;49.306;6.934;2024-01-16T00:50:00;97915.66;;;6.56;53.87
22964;BME280;11648;49.306;6.934;2024-01-16T00:52:29;97907.81;;;6.59;53.25
22964;BME280;11648;49.306;6.934;2024-01-16T00:54:56;97912.19;;;6.57;53.59
22964;BME280;11648;49.306;6.934;2024-01-16T00:57:22;97909.59;;;6.43;53.82
22964;BME280;11648;49.306;6.934;2024-01-16T00:59:49;97913.06;;;6.49;53.85
22964;BME280;11648;49.306;6.934;2024-01-16T01:02:16;97914.78;;;6.59;53.65
22964;BME280;11648;49.306;6.934;2024-01-16T01:04:43;97921.75;;;6.57;53.67
22964;BME280;11648;49.306;6.934;2024-01-16T01:07:15;97907.84;;;6.50;53.87
22964;BME280;11648;49.306;6.934;2024-01-16T01:09:42;97915.69;;;6.44;53.65
22964;BME280;11648;49.306;6.934;2024-01-16T01:12:09;97910.47;;;6.39;54.15
22964;BME280;11648;49.306;6.934;2024-01-16T01:14:36;97919.16;;;6.43;54.07
22964;BME280;11648;49.306;6.934;2024-01-16T01:17:03;97924.44;;;6.34;54.13
22964;BME280;11648;49.306;6.934;2024-01-16T01:19:30;97922.75;;;6.24;54.16
22964;BME280;11648;49.306;6.934;2024-01-16T01:21:57;97920.13;;;6.22;53.90
22964;BME280;11648;49.306;6.934;2024-01-16T01:24:24;97924.47;;;6.31;54.07
22964;BME280;11648;49.306;6.934;2024-01-16T01:26:51;97927.09;;;6.19;54.44
22964;BME280;11648;49.306;6.934;2024-01-16T01:29:18;97925.34;;;6.28;54.45
22964;BME280;11648;49.306;6.934;2024-01-16T01:31:46;97920.91;;;6.44;54.25
22964;BME280;11648;49.306;6.934;2024-01-16T01:34:14;97918.34;;;6.30;54.77
22964;BME280;11648;49.306;6.934;2024-01-16T01:36:42;97919.19;;;6.40;54.01
22964;BME280;11648;49.306;6.934;2024-01-16T01:39:10;97915.69;;;6.39;54.26
22964;BME280;11648;49.306;6.934;2024-01-16T01:41:39;97913.97;;;6.40;54.29
22964;BME280;11648;49.306;6.934;2024-01-16T01:44:06;97927.91;;;6.36;54.42
22964;BME280;11648;49.306;6.934;2024-01-16T01:46:34;97915.75;;;6.35;54.45
22964;BME280;11648;49.306;6.934;2024-01-16T01:49:02;97920.13;;;6.22;55.11
22964;BME280;11648;49.306;6.934;2024-01-16T01:51:30;97927.09;;;6.28;54.65
22964;BME280;11648;49.306;6.934;2024-01-16T01:53:57;97925.34;;;6.27;54.59
22964;BME280;11648;49.306;6.934;2024-01-16T01:56:26;97928.84;;;6.18;54.59
22964;BME280;11648;49.306;6.934;2024-01-16T01:58:56;97930.56;;;6.27;55.15
22964;BME280;11648;49.306;6.934;2024-01-16T02:01:24;97927.94;;;6.25;54.78
22964;BME280;11648;49.306;6.934;2024-01-16T02:03:52;97929.75;;;6.07;55.64
22964;BME280;11648;49.306;6.934;2024-01-16T02:06:21;97924.47;;;6.31;54.37
22964;BME280;11648;49.306;6.934;2024-01-16T02:08:48;97916.59;;;6.34;54.58
22964;BME280;11648;49.306;6.934;2024-01-16T02:11:15;97922.75;;;6.15;55.19
22964;BME280;11648;49.306;6.934;2024-01-16T02:13:42;97920.13;;;6.15;54.91
22964;BME280;11648;49.306;6.934;2024-01-16T02:16:22;97928.81;;;6.23;55.11
22964;BME280;11648;49.306;6.934;2024-01-16T02:18:50;97932.34;;;6.17;54.96
22964;BME280;11648;49.306;6.934;2024-01-16T02:21:21;97927.06;;;6.26;54.79
22964;BME280;11648;49.306;6.934;2024-01-16T02:23:48;97928.00;;;6.18;55.08
22964;BME280;11648;49.306;6.934;2024-01-16T02:26:15;97940.19;;;6.04;55.48
22964;BME280;11648;49.306;6.934;2024-01-16T02:28:42;97939.31;;;6.21;54.75
22964;BME280;11648;49.306;6.934;2024-01-16T02:31:09;97936.69;;;6.05;55.88
22964;BME280;11648;49.306;6.934;2024-01-16T02:33:36;97943.66;;;6.18;55.34
22964;BME280;11648;49.306;6.934;2024-01-16T02:36:03;97944.53;;;6.20;55.17
22964;BME280;11648;49.306;6.934;2024-01-16T02:38:30;97934.94;;;6.25;55.11
22964;BME280;11648;49.306;6.934;2024-01-16T02:40:57;97932.31;;;6.23;54.57
22964;BME280;11648;49.306;6.934;2024-01-16T02:43:24;97933.16;;;6.33;54.68
22964;BME280;11648;49.306;6.934;2024-01-16T02:45:53;97934.94;;;6.25;54.76
22964;BME280;11648;49.306;6.934;2024-01-16T02:48:20;97932.28;;;6.35;54.46
22964;BME280;11648;49.306;6.934;2024-01-16T02:50:47;97935.78;;;6.34;54.84
22964;BME280;11648;49.306;6.934;2024-01-16T02:53:14;97924.41;;;6.40;54.13
22964;BME280;11648;49.306;6.934;2024-01-16T02:55:42;97937.53;;;6.35;54.25
22964;BME280;11648;49.306;6.934;2024-01-16T02:58:08;97936.66;;;6.32;54.33
22964;BME280;11648;49.306;6.934;2024-01-16T03:00:35;97933.22;;;6.06;55.00
22964;BME280;11648;49.306;6.934;2024-01-16T03:03:02;97938.44;;;6.06;54.87
22964;BME280;11648;49.306;6.934;2024-01-16T03:05:29;97922.69;;;6.42;54.05
22964;BME280;11648;49.306;6.934;2024-01-16T03:07:56;97930.56;;;6.30;54.58
22964;BME280;11648;49.306;6.934;2024-01-16T03:10:23;97924.47;;;6.35;54.74
22964;BME280;11648;49.306;6.934;2024-01-16T03:12:50;97927.00;;;6.52;54.06
22964;BME280;11648;49.306;6.934;2024-01-16T03:15:16;97918.28;;;6.52;53.96
22964;BME280;11648;49.306;6.934;2024-01-16T03:17:43;97922.63;;;6.51;53.76
22964;BME280;11648;49.306;6.934;2024-01-16T03:20:11;97928.75;;;6.47;54.14
22964;BME280;11648;49.306;6.934;2024-01-16T03:22:38;97933.16;;;6.39;54.16
22964;BME280;11648;49.306;6.934;2024-01-16T03:25:08;97921.81;;;6.40;53.75
22964;BME280;11648;49.306;6.934;2024-01-16T03:27:35;97933.13;;;6.43;54.24
22964;BME280;11648;49.306;6.934;2024-01-16T03:30:02;97927.91;;;6.42;54.26
22964;BME280;11648;49.306;6.934;2024-01-16T03:32:30;97918.31;;;6.36;54.25
22964;BME280;11648;49.306;6.934;2024-01-16T03:34:57;97927.09;;;6.25;54.31
22964;BME280;11648;49.306;6.934;2024-01-16T03:37:24;97927.94;;;6.34;53.98
22964;BME280;11648;49.306;6.934;2024-01-16T03:39:50;97923.63;;;6.11;54.94
22964;BME280;11648;49.306;6.934;2024-01-16T03:42:17;97921.00;;;6.11;54.67
22964;BME280;11648;49.306;6.934;2024-01-16T03:44:45;97913.16;;;6.24;54.36
22964;BME280;11648;49.306;6.934;2024-01-16T03:47:12;97912.31;;;5.96;54.96
22964;BME280;11648;49.306;6.934;2024-01-16T03:49:39;97918.41;;;6.17;54.20
22964;BME280;11648;49.306;6.934;2024-01-16T03:52:06;97912.28;;;6.21;54.46
22964;BME280;11648;49.306;6.934;2024-01-16T03:54:33;97901.78;;;6.33;53.92
22964;BME280;11648;49.306;6.934;2024-01-16T03:57:00;97902.69;;;6.30;54.10
22964;BME280;11648;49.306;6.934;2024-01-16T03:59:26;97900.06;;;6.35;53.86
22964;BME280;11648;49.306;6.934;2024-01-16T04:01:53;97902.69;;;6.23;53.93
22964;BME280;11648;49.306;6.934;2024-01-16T04:04:20;97909.66;;;6.24;53.90
22964;BME280;11648;49.306;6.934;2024-01-16T04:06:49;97904.47;;;6.10;54.94
22964;BME280;11648;49.306;6.934;2024-01-16T04:09:16;97912.31;;;6.18;54.30
22964;BME280;11648;49.306;6.934;2024-01-16T04:11:43;97908.84;;;5.99;54.63
22964;BME280;11648;49.306;6.934;2024-01-16T04:14:11;97911.47;;;6.02;54.29
22964;BME280;11648;49.306;6.934;2024-01-16T04:16:38;97910.59;;;6.02;54.94
22964;BME280;11648;49.306;6.934;2024-01-16T04:19:05;97909.72;;;5.81;54.63
22964;BME280;11648;49.306;6.934;2024-01-16T04:21:32;97900.16;;;5.89;54.76
22964;BME280;11648;49.306;6.934;2024-01-16T04:23:58;97900.13;;;5.83;54.57
22964;BME280;11648;49.306;6.934;2024-01-16T04:26:25;97898.38;;;6.01;53.86
22964;BME280;11648;49.306;6.934;2024-01-16T04:28:52;97895.78;;;5.97;54.43
22964;BME280;11648;49.306;6.934;2024-01-16T04:31:19;97899.28;;;5.66;54.91
22964;BME280;11648;49.306;6.934;2024-01-16T04:33:48;97894.06;;;5.86;54.67
22964;BME280;11648;49.306;6.934;2024-01-16T04:36:16;97894.94;;;5.92;53.99
22964;BME280;11648;49.306;6.934;2024-01-16T04:38:42;97897.53;;;5.82;55.07
22964;BME280;11648;49.306;6.934;2024-01-16T04:41:10;97892.31;;;5.80;54.83
22964;BME280;11648;49.306;6.934;2024-01-16T04:43:37;97891.44;;;5.95;54.02
22964;BME280;11648;49.306;6.934;2024-01-16T04:46:04;97886.22;;;5.84;54.44
22964;BME280;11648;49.306;6.934;2024-01-16T04:48:31;97887.09;;;5.92;54.19
22964;BME280;11648;49.306;6.934;2024-01-16T04:50:58;97894.03;;;6.01;53.95
22964;BME280;11648;49.306;6.934;2024-01-16T04:53:25;97882.75;;;5.88;53.78
22964;BME280;11648;49.306;6.934;2024-01-16T04:55:51;97880.94;;;6.07;54.13
22964;BME280;11648;49.306;6.934;2024-01-16T04:58:19;97887.94;;;6.07;53.93
22964;BME280;11648;49.306;6.934;2024-01-16T05:00:46;97876.56;;;6.18;53.42
22964;BME280;11648;49.306;6.934;2024-01-16T05:03:14;97876.63;;;6.06;53.60
22964;BME280;11648;49.306;6.934;2024-01-16T05:05:41;97872.25;;;6.08;54.07
22964;BME280;11648;49.306;6.934;2024-01-16T05:08:08;97873.97;;;6.15;54.12
22964;BME280;11648;49.306;6.934;2024-01-16T05:10:35;97862.66;;;6.16;53.80
22964;BME280;11648;49.306;6.934;2024-01-16T05:13:02;97866.16;;;6.05;53.85
22964;BME280;11648;49.306;6.934;2024-01-16T05:15:29;97859.19;;;6.17;54.06
22964;BME280;11648;49.306;6.934;2024-01-16T05:17:56;97866.16;;;6.09;54.04
22964;BME280;11648;49.306;6.934;2024-01-16T05:20:23;97855.69;;;6.11;54.09
22964;BME280;11648;49.306;6.934;2024-01-16T05:22:50;97853.94;;;6.17;54.12
22964;BME280;11648;49.306;6.934;2024-01-16T05:25:17;97854.81;;;6.12;53.87
22964;BME280;11648;49.306;6.934;2024-01-16T05:27:44;97853.94;;;6.16;53.69
22964;BME280;11648;49.306;6.934;2024-01-16T05:30:11;97850.47;;;6.17;53.38
22964;BME280;11648;49.306;6.934;2024-01-16T05:32:38;97849.56;;;6.19;54.01
22964;BME280;11648;49.306;6.934;2024-01-16T05:35:08;97844.34;;;6.15;53.34
22964;BME280;11648;49.306;6.934;2024-01-16T05:37:36;97844.38;;;6.13;53.66
22964;BME280;11648;49.306;6.934;2024-01-16T05:40:04;97834.81;;;6.06;53.58
22964;BME280;11648;49.306;6.934;2024-01-16T05:42:31;97840.91;;;6.04;54.31
22964;BME280;11648;49.306;6.934;2024-01-16T05:44:57;97840.91;;;6.01;53.94
22964;BME280;11648;49.306;6.934;2024-01-16T05:47:24;97841.78;;;6.01;53.71
22964;BME280;11648;49.306;6.934;2024-01-16T05:49:54;97843.53;;;6.05;53.63
22964;BME280;11648;49.306;6.934;2024-01-16T05:52:22;97835.69;;;6.10;53.56
22964;BME280;11648;49.306;6.934;2024-01-16T05:54:49;97840.91;;;6.10;53.20
22964;BME280;11648;49.306;6.934;2024-01-16T05:57:16;97851.38;;;6.02;53.71
22964;BME280;11648;49.306;6.934;2024-01-16T05:59:43;97854.84;;;6.03;53.84
22964;BME280;11648;49.306;6.934;2024-01-16T06:02:10;97852.25;;;5.98;53.45
22964;BME280;11648;49.306;6.934;2024-01-16T06:04:37;97843.56;;;5.96;54.01
22964;BME280;11648;49.306;6.934;2024-01-16T06:07:04;97840.94;;;5.99;53.95
22964;BME280;11648;49.306;6.934;2024-01-16T06:09:38;97845.28;;;5.89;53.52
22964;BME280;11648;49.306;6.934;2024-01-16T06:12:06;97839.22;;;5.77;54.07
22964;BME280;11648;49.306;6.934;2024-01-16T06:14:36;97838.34;;;5.70;54.33
22964;BME280;11648;49.306;6.934;2024-01-16T06:17:03;97835.75;;;5.66;53.98
22964;BME280;11648;49.306;6.934;2024-01-16T06:19:32;97829.66;;;5.55;54.39
22964;BME280;11648;49.306;6.934;2024-01-16T06:21:59;97841.03;;;5.28;54.85
22964;BME280;11648;49.306;6.934;2024-01-16T06:24:26;97831.44;;;5.33;54.95
22964;BME280;11648;49.306;6.934;2024-01-16T06:26:54;97830.56;;;5.23;54.42
22964;BME280;11648;49.306;6.934;2024-01-16T06:29:20;97821.88;;;5.17;55.44
22964;BME280;11648;49.306;6.934;2024-01-16T06:32:00;97825.34;;;5.16;55.32
22964;BME280;11648;49.306;6.934;2024-01-16T06:34:27;97830.56;;;5.13;54.81
22964;BME280;11648;49.306;6.934;2024-01-16T06:36:54;97817.53;;;5.16;55.16
22964;BME280;11648;49.306;6.934;2024-01-16T06:39:21;97813.19;;;5.21;55.21
22964;BME280;11648;49.306;6.934;2024-01-16T06:41:48;97821.00;;;5.19;55.40
22964;BME280;11648;49.306;6.934;2024-01-16T06:44:15;97810.56;;;5.22;55.07
22964;BME280;11648;49.306;6.934;2024-01-16T06:46:42;97809.72;;;5.28;54.99
22964;BME280;11648;49.306;6.934;2024-01-16T06:49:09;97817.53;;;5.17;54.77
22964;BME280;11648;49.306;6.934;2024-01-16T06:51:36;97816.63;;;5.14;54.67
22964;BME280;11648;49.306;6.934;2024-01-16T06:54:03;97827.97;;;5.17;54.42
22964;BME280;11648;49.306;6.934;2024-01-16T06:56:30;97821.00;;;5.21;54.36
22964;BME280;11648;49.306;6.934;2024-01-16T06:58:57;97814.03;;;5.23;54.18
22964;BME280;11648;49.306;6.934;2024-01-16T07:01:24;97818.38;;;5.18;54.34
22964;BME280;11648;49.306;6.934;2024-01-16T07:03:50;97815.78;;;5.12;54.19
22964;BME280;11648;49.306;6.934;2024-01-16T07:06:19;97813.19;;;5.12;54.46
22964;BME280;11648;49.306;6.934;2024-01-16T07:08:46;97811.44;;;5.20;54.15
22964;BME280;11648;49.306;6.934;2024-01-16T07:11:13;97810.56;;;5.24;54.58
22964;BME280;11648;49.306;6.934;2024-01-16T07:13:40;97816.63;;;5.21;54.74
22964;BME280;11648;49.306;6.934;2024-01-16T07:16:10;97811.44;;;5.30;54.34
22964;BME280;11648;49.306;6.934;2024-01-16T07:18:38;97820.13;;;5.19;54.73
22964;BME280;11648;49.306;6.934;2024-01-16T07:21:19;97817.53;;;5.16;55.13
22964;BME280;11648;49.306;6.934;2024-01-16T07:23:47;97827.94;;;4.96;54.48
22964;BME280;11648;49.306;6.934;2024-01-16T07:26:15;97827.97;;;4.99;54.85
22964;BME280;11648;49.306;6.934;2024-01-16T07:28:43;97832.31;;;5.02;55.28
22964;BME280;11648;49.306;6.934;2024-01-16T07:31:10;97832.28;;;4.97;54.87
22964;BME280;11648;49.306;6.934;2024-01-16T07:33:38;97827.94;;;4.96;55.13
22964;BME280;11648;49.306;6.934;2024-01-16T07:36:07;97828.81;;;4.83;54.41
22964;BME280;11648;49.306;6.934;2024-01-16T07:38:35;97837.50;;;4.88;54.67
22964;BME280;11648;49.306;6.934;2024-01-16T07:41:03;97837.47;;;4.76;55.07
22964;BME280;11648;49.306;6.934;2024-01-16T07:43:31;97840.91;;;4.61;55.17
22964;BME280;11648;49.306;6.934;2024-01-16T07:45:58;97840.94;;;4.64;54.46
22964;BME280;11648;49.306;6.934;2024-01-16T07:48:25;97848.75;;;4.69;54.85
22964;BME280;11648;49.306;6.934;2024-01-16T07:50:52;97848.75;;;4.66;54.75
22964;BME280;11648;49.306;6.934;2024-01-16T07:53:19;97855.72;;;4.71;54.63
22964;BME280;11648;49.306;6.934;2024-01-16T07:55:46;97854.84;;;4.78;54.13
22964;BME280;11648;49.306;6.934;2024-01-16T07:58:14;97864.44;;;4.90;53.85
22964;BME280;11648;49.306;6.934;2024-01-16T08:00:40;97866.19;;;4.85;54.01
22964;BME280;11648;49.306;6.934;2024-01-16T08:03:08;97862.72;;;4.95;53.67
22964;BME280;11648;49.306;6.934;2024-01-16T08:05:38;97869.69;;;4.99;53.89
22964;BME280;11648;49.306;6.934;2024-01-16T08:08:07;97869.69;;;5.04;53.89
22964;BME280;11648;49.306;6.934;2024-01-16T08:10:35;97862.72;;;5.18;53.31
22964;BME280;11648;49.306;6.934;2024-01-16T08:13:02;97867.09;;;5.16;52.79
22964;BME280;11648;49.306;6.934;2024-01-16T08:15:28;97864.50;;;5.41;52.91
22964;BME280;11648;49.306;6.934;2024-01-16T08:17:55;97867.97;;;5.48;52.26
22964;BME280;11648;49.306;6.934;2024-01-16T08:20:22;97866.22;;;5.47;51.74
22964;BME280;11648;49.306;6.934;2024-01-16T08:22:49;97852.28;;;5.59;51.95
22964;BME280;11648;49.306;6.934;2024-01-16T08:25:17;97854.03;;;5.67;51.41
22964;BME280;11648;49.306;6.934;2024-01-16T08:27:43;97854.00;;;5.93;51.90
22964;BME280;11648;49.306;6.934;2024-01-16T08:30:11;97846.16;;;5.79;51.54
22964;BME280;11648;49.306;6.934;2024-01-16T08:32:39;97849.66;;;5.92;51.86
22964;BME280;11648;49.306;6.934;2024-01-16T08:35:06;97855.72;;;6.03;51.24
22964;BME280;11648;49.306;6.934;2024-01-16T08:37:33;97858.31;;;6.08;51.47
22964;BME280;11648;49.306;6.934;2024-01-16T08:40:01;97859.19;;;6.13;51.39
22964;BME280;11648;49.306;6.934;2024-01-16T08:42:30;97857.44;;;6.13;50.71
22964;BME280;11648;49.306;6.934;2024-01-16T08:44:57;97862.66;;;6.21;50.98
22964;BME280;11648;49.306;6.934;2024-01-16T08:47:24;97867.00;;;6.20;50.35
22964;BME280;11648;49.306;6.934;2024-01-16T08:49:51;97863.47;;;6.32;50.62
22964;BME280;11648;49.306;6.934;2024-01-16T08:52:18;97866.13;;;6.18;50.53
22964;BME280;11648;49.306;6.934;2024-01-16T08:54:45;97869.53;;;6.32;50.82
22964;BME280;11648;49.306;6.934;2024-01-16T08:57:12;97866.06;;;6.38;50.13
22964;BME280;11648;49.306;6.934;2024-01-16T08:59:43;97866.03;;;6.42;50.02
22964;BME280;11648;49.306;6.934;2024-01-16T09:02:10;97870.38;;;6.50;49.80
22964;BME280;11648;49.306;6.934;2024-01-16T09:04:37;97857.19;;;6.71;50.02
22964;BME280;11648;49.306;6.934;2024-01-16T09:07:04;97862.34;;;6.83;49.09
22964;BME280;11648;49.306;6.934;2024-01-16T09:09:32;97858.72;;;7.07;49.12
22964;BME280;11648;49.306;6.934;2024-01-16T09:11:59;97855.88;;;7.35;48.05
22964;BME280;11648;49.306;6.934;2024-01-16T09:14:26;97844.38;;;7.53;47.47
22964;BME280;11648;49.306;6.934;2024-01-16T09:16:53;97847.69;;;7.73;47.36
22964;BME280;11648;49.306;6.934;2024-01-16T09:19:20;97850.53;;;7.47;47.05
22964;BME280;11648;49.306;6.934;2024-01-16T09:21:48;97848.69;;;7.60;46.92
22964;BME280;11648;49.306;6.934;2024-01-16T09:24:15;97848.63;;;7.68;46.64
22964;BME280;11648;49.306;6.934;2024-01-16T09:26:42;97853.69;;;7.84;45.94
22964;BME280;11648;49.306;6.934;2024-01-16T09:29:10;97834.25;;;8.05;46.42
22964;BME280;11648;49.306;6.934;2024-01-16T09:31:37;97820.22;;;8.11;45.59
22964;BME280;11648;49.306;6.934;2024-01-16T09:34:04;97828.78;;;8.29;46.20
22964;BME280;11648;49.306;6.934;2024-01-16T09:36:35;97824.50;;;8.86;45.22
22964;BME280;11648;49.306;6.934;2024-01-16T09:39:05;97822.28;;;9.17;44.95
22964;BME280;11648;49.306;6.934;2024-01-16T09:41:44;97807.72;;;9.50;44.11
22964;BME280;11648;49.306;6.934;2024-01-16T09:44:11;97795.53;;;9.48;43.89
22964;BME280;11648;49.306;6.934;2024-01-16T09:46:38;97794.81;;;9.85;43.59
22964;BME280;11648;49.306;6.934;2024-01-16T09:49:07;97786.38;;;9.68;42.95
22964;BME280;11648;49.306;6.934;2024-01-16T09:51:35;97786.00;;;9.88;42.73
22964;BME280;11648;49.306;6.934;2024-01-16T09:54:02;97783.81;;;10.11;42.66
22964;BME280;11648;49.306;6.934;2024-01-16T09:56:33;97782.69;;;10.24;42.81
22964;BME280;11648;49.306;6.934;2024-01-16T09:59:05;97784.34;;;10.70;41.76
22964;BME280;11648;49.306;6.934;2024-01-16T10:01:33;97765.91;;;11.07;41.64
22964;BME280;11648;49.306;6.934;2024-01-16T10:04:00;97766.09;;;11.68;40.13
22964;BME280;11648;49.306;6.934;2024-01-16T10:06:27;97759.88;;;12.35;39.25
22964;BME280;11648;49.306;6.934;2024-01-16T10:08:56;97748.84;;;12.51;37.55
22964;BME280;11648;49.306;6.934;2024-01-16T10:11:23;97736.56;;;13.05;37.16
22964;BME280;11648;49.306;6.934;2024-01-16T10:13:50;97739.31;;;13.02;36.39
22964;BME280;11648;49.306;6.934;2024-01-16T10:16:17;97738.03;;;12.87;35.83
22964;BME280;11648;49.306;6.934;2024-01-16T10:18:43;97740.44;;;13.23;36.33
22964;BME280;11648;49.306;6.934;2024-01-16T10:21:20;97734.91;;;13.03;36.41
22964;BME280;11648;49.306;6.934;2024-01-16T10:23:49;97732.47;;;13.24;35.64
22964;BME280;11648;49.306;6.934;2024-01-16T10:26:16;97728.44;;;13.13;35.69
22964;BME280;11648;49.306;6.934;2024-01-16T10:28:45;97740.09;;;13.58;36.01
22964;BME280;11648;49.306;6.934;2024-01-16T10:31:13;97737.06;;;13.44;35.58
22964;BME280;11648;49.306;6.934;2024-01-16T10:33:43;97728.13;;;13.22;35.45
22964;BME280;11648;49.306;6.934;2024-01-16T10:36:15;97728.34;;;13.42;34.36
22964;BME280;11648;49.306;6.934;2024-01-16T10:38:47;97730.25;;;13.37;35.29
22964;BME280;11648;49.306;6.934;2024-01-16T10:41:16;97731.03;;;14.15;34.76
22964;BME280;11648;49.306;6.934;2024-01-16T10:44:05;97701.28;;;15.20;32.42
22964;BME280;11648;49.306;6.934;2024-01-16T10:46:34;97702.66;;;15.30;31.95
22964;BME280;11648;49.306;6.934;2024-01-16T10:49:04;97691.75;;;15.98;30.68
22964;BME280;11648;49.306;6.934;2024-01-16T10:51:32;97678.16;;;17.16;29.56
22964;BME280;11648;49.306;6.934;2024-01-16T10:54:03;97661.94;;;19.18;28.49
22964;BME280;11648;49.306;6.934;2024-01-16T10:56:32;97648.56;;;21.44;24.72
22964;BME280;11648;49.306;6.934;2024-01-16T11:02:05;97634.44;;;26.96;19.07
22964;BME280;11648;49.306;6.934;2024-01-16T11:04:37;97634.25;;;27.76;18.50
22964;BME280;11648;49.306;6.934;2024-01-16T11:07:05;97635.69;;;27.61;17.75
22964;BME280;11648;49.306;6.934;2024-01-16T11:09:34;97641.97;;;29.37;17.12
22964;BME280;11648;49.306;6.934;2024-01-16T11:12:02;97627.50;;;30.51;15.75
22964;BME280;11648;49.306;6.934;2024-01-16T11:14:30;97633.03;;;30.67;15.51
22964;BME280;11648;49.306;6.934;2024-01-16T11:16:57;97633.69;;;29.74;15.72
22964;BME280;11648;49.306;6.934;2024-01-16T11:19:27;97642.97;;;29.72;16.41
22964;BME280;11648;49.306;6.934;2024-01-16T11:22:15;97621.72;;;30.80;14.50
22964;BME280;11648;49.306;6.934;2024-01-16T11:24:42;97615.41;;;30.79;15.40
22964;BME280;11648;49.306;6.934;2024-01-16T11:27:21;97612.69;;;30.79;14.86
22964;BME280;11648;49.306;6.934;2024-01-16T11:29:52;97622.09;;;30.93;14.75
22964;BME280;11648;49.306;6.934;2024-01-16T11:32:36;97614.94;;;31.34;14.22
22964;BME280;11648;49.306;6.934;2024-01-16T11:35:08;97611.84;;;31.13;15.09
22964;BME280;11648;49.306;6.934;2024-01-16T11:37:36;97606.34;;;31.71;13.70
22964;BME280;11648;49.306;6.934;2024-01-16T11:42:43;97605.41;;;31.14;14.22
22964;BME280;11648;49.306;6.934;2024-01-16T11:48:10;97590.88;;;31.63;13.42
22964;BME280;11648;49.306;6.934;2024-01-16T11:50:37;97593.91;;;31.52;14.40
22964;BME280;11648;49.306;6.934;2024-01-16T11:53:05;97577.31;;;32.67;12.63
22964;BME280;11648;49.306;6.934;2024-01-16T12:00:53;97569.25;;;30.87;13.76
22964;BME280;11648;49.306;6.934;2024-01-16T12:03:21;97566.94;;;30.59;13.96
22964;BME280;11648;49.306;6.934;2024-01-16T12:06:01;97555.53;;;30.29;13.99
22964;BME280;11648;49.306;6.934;2024-01-16T12:08:33;97580.91;;;29.69;14.59
22964;BME280;11648;49.306;6.934;2024-01-16T12:11:00;97581.38;;;28.84;15.56
22964;BME280;11648;49.306;6.934;2024-01-16T12:13:27;97572.75;;;28.71;15.44
22964;BME280;11648;49.306;6.934;2024-01-16T12:16:01;97577.56;;;29.57;14.58
22964;BME280;11648;49.306;6.934;2024-01-16T12:18:30;97559.41;;;29.93;14.20
22964;BME280;11648;49.306;6.934;2024-01-16T12:21:13;97569.34;;;28.69;15.45
22964;BME280;11648;49.306;6.934;2024-01-16T12:23:42;97565.88;;;28.67;15.31
22964;BME280;11648;49.306;6.934;2024-01-16T12:26:22;97561.75;;;27.89;16.13
22964;BME280;11648;49.306;6.934;2024-01-16T12:28:53;97554.25;;;28.57;15.40
22964;BME280;11648;49.306;6.934;2024-01-16T12:31:27;97560.53;;;27.35;16.12
22964;BME280;11648;49.306;6.934;2024-01-16T12:34:14;97565.91;;;26.97;16.83
22964;BME280;11648;49.306;6.934;2024-01-16T12:36:41;97567.06;;;25.73;17.60
22964;BME280;11648;49.306;6.934;2024-01-16T12:39:10;97566.22;;;24.88;17.83
22964;BME280;11648;49.306;6.934;2024-01-16T12:41:42;97572.94;;;23.72;19.12
22964;BME280;11648;49.306;6.934;2024-01-16T12:44:10;97578.03;;;21.18;21.07
22964;BME280;11648;49.306;6.934;2024-01-16T12:46:54;97575.91;;;20.01;22.16
22964;BME280;11648;49.306;6.934;2024-01-16T12:49:22;97582.03;;;19.15;23.08
22964;BME280;11648;49.306;6.934;2024-01-16T12:51:50;97590.41;;;17.16;25.10
22964;BME280;11648;49.306;6.934;2024-01-16T12:54:18;97592.56;;;16.55;25.49
22964;BME280;11648;49.306;6.934;2024-01-16T12:56:58;97585.53;;;16.17;25.29
22964;BME280;11648;49.306;6.934;2024-01-16T12:59:27;97594.41;;;14.77;28.60
22964;BME280;11648;49.306;6.934;2024-01-16T13:01:56;97584.94;;;14.50;28.66
22964;BME280;11648;49.306;6.934;2024-01-16T13:04:23;97592.81;;;13.83;29.32
22964;BME280;11648;49.306;6.934;2024-01-16T13:06:50;97598.69;;;13.20;30.87
22964;BME280;11648;49.306;6.934;2024-01-16T13:09:22;97597.84;;;12.67;31.56
22964;BME280;11648;49.306;6.934;2024-01-16T13:14:18;97600.97;;;11.97;32.38
22964;BME280;11648;49.306;6.934;2024-01-16T13:16:48;97604.13;;;11.49;32.57
22964;BME280;11648;49.306;6.934;2024-01-16T13:19:19;97594.47;;;11.48;33.13
22964;BME280;11648;49.306;6.934;2024-01-16T13:21:50;97606.38;;;11.30;33.51
22964;BME280;11648;49.306;6.934;2024-01-16T13:24:17;97600.25;;;11.30;33.87
22964;BME280;11648;49.306;6.934;2024-01-16T13:26:47;97596.25;;;11.46;33.41
22964;BME280;11648;49.306;6.934;2024-01-16T13:29:14;97594.19;;;11.26;34.52